sensor_id;sensor_type;location;lat;lon;timestamp;P1;durP1;ratioP1;P2;durP2;ratioP2
73980;SDS011;62348;51.412;5.436;2023-01-24T00:01:38;23.63;;;15.07;;
73980;SDS011;62348;51.412;5.436;2023-01-24T00:04:04;22.92;;;14.65;;
73980;SDS011;62348;51.412;5.436;2023-01-24T00:06:29;25.45;;;16.27;;
73980;SDS011;62348;51.412;5.436;2023-01-24T00:08:55;23.73;;;15.57;;
73980;SDS011;62348;51.412;5.436;2023-01-24T00:11:20;24.73;;;15.30;;
73980;SDS011;62348;51.412;5.436;2023-01-24T00:13:45;26.50;;;16.35;;
73980;SDS011;62348;51.412;5.436;2023-01-24T00:16:15;26.13;;;15.68;;
73980;SDS011;62348;51.412;5.436;2023-01-24T00:18:42;24.48;;;15.48;;
73980;SDS011;62348;51.412;5.436;2023-01-24T00:21:10;24.08;;;15.25;;
73980;SDS011;62348;51.412;5.436;2023-01-24T00:23:47;24.30;;;15.50;;
73980;SDS011;62348;51.412;5.436;2023-01-24T00:26:14;23.90;;;14.82;;
73980;SDS011;62348;51.412;5.436;2023-01-24T00:28:41;24.83;;;14.90;;
73980;SDS011;62348;51.412;5.436;2023-01-24T00:31:06;24.63;;;14.63;;
73980;SDS011;62348;51.412;5.436;2023-01-24T00:33:32;23.48;;;14.82;;
73980;SDS011;62348;51.412;5.436;2023-01-24T00:35:58;25.60;;;15.80;;
73980;SDS011;62348;51.412;5.436;2023-01-24T00:38:24;24.27;;;15.52;;
73980;SDS011;62348;51.412;5.436;2023-01-24T00:40:50;23.33;;;14.75;;
73980;SDS011;62348;51.412;5.436;2023-01-24T00:43:16;22.50;;;14.90;;
73980;SDS011;62348;51.412;5.436;2023-01-24T00:45:42;24.30;;;14.68;;
73980;SDS011;62348;51.412;5.436;2023-01-24T00:48:09;23.10;;;14.85;;
73980;SDS011;62348;51.412;5.436;2023-01-24T00:50:35;24.42;;;14.85;;
73980;SDS011;62348;51.412;5.436;2023-01-24T00:53:00;24.33;;;14.63;;
73980;SDS011;62348;51.412;5.436;2023-01-24T00:55:26;22.15;;;15.23;;
73980;SDS011;62348;51.412;5.436;2023-01-24T00:57:52;22.27;;;14.93;;
73980;SDS011;62348;51.412;5.436;2023-01-24T01:00:17;22.58;;;14.07;;
73980;SDS011;62348;51.412;5.436;2023-01-24T01:02:43;20.98;;;13.75;;
73980;SDS011;62348;51.412;5.436;2023-01-24T01:05:08;21.67;;;14.88;;
73980;SDS011;62348;51.412;5.436;2023-01-24T01:07:34;23.42;;;14.85;;
73980;SDS011;62348;51.412;5.436;2023-01-24T01:10:00;21.88;;;13.60;;
73980;SDS011;62348;51.412;5.436;2023-01-24T01:12:25;21.27;;;14.52;;
73980;SDS011;62348;51.412;5.436;2023-01-24T01:14:51;23.13;;;14.00;;
73980;SDS011;62348;51.412;5.436;2023-01-24T01:17:16;23.45;;;14.50;;
73980;SDS011;62348;51.412;5.436;2023-01-24T01:19:41;22.42;;;13.70;;
73980;SDS011;62348;51.412;5.436;2023-01-24T01:22:07;20.50;;;13.57;;
73980;SDS011;62348;51.412;5.436;2023-01-24T01:24:33;19.75;;;14.05;;
73980;SDS011;62348;51.412;5.436;2023-01-24T01:26:59;22.17;;;13.93;;
73980;SDS011;62348;51.412;5.436;2023-01-24T01:29:25;23.35;;;14.55;;
73980;SDS011;62348;51.412;5.436;2023-01-24T01:31:50;23.52;;;13.77;;
73980;SDS011;62348;51.412;5.436;2023-01-24T01:34:16;20.88;;;13.88;;
73980;SDS011;62348;51.412;5.436;2023-01-24T01:36:41;23.05;;;13.95;;
73980;SDS011;62348;51.412;5.436;2023-01-24T01:39:06;22.67;;;13.52;;
73980;SDS011;62348;51.412;5.436;2023-01-24T01:41:32;22.48;;;14.07;;
73980;SDS011;62348;51.412;5.436;2023-01-24T01:44:16;21.77;;;14.48;;
73980;SDS011;62348;51.412;5.436;2023-01-24T01:47:03;24.20;;;14.05;;
73980;SDS011;62348;51.412;5.436;2023-01-24T01:49:43;23.80;;;15.20;;
73980;SDS011;62348;51.412;5.436;2023-01-24T01:52:14;23.85;;;15.20;;
73980;SDS011;62348;51.412;5.436;2023-01-24T01:54:40;24.30;;;15.27;;
73980;SDS011;62348;51.412;5.436;2023-01-24T01:57:11;20.63;;;13.90;;
73980;SDS011;62348;51.412;5.436;2023-01-24T01:59:41;24.05;;;15.45;;
73980;SDS011;62348;51.412;5.436;2023-01-24T02:02:14;23.10;;;14.88;;
73980;SDS011;62348;51.412;5.436;2023-01-24T02:04:41;23.20;;;14.57;;
73980;SDS011;62348;51.412;5.436;2023-01-24T02:07:16;23.20;;;14.80;;
73980;SDS011;62348;51.412;5.436;2023-01-24T02:09:47;23.30;;;15.52;;
73980;SDS011;62348;51.412;5.436;2023-01-24T02:12:20;22.33;;;14.35;;
73980;SDS011;62348;51.412;5.436;2023-01-24T02:14:51;23.75;;;15.38;;
73980;SDS011;62348;51.412;5.436;2023-01-24T02:17:38;22.45;;;15.30;;
73980;SDS011;62348;51.412;5.436;2023-01-24T02:25:28;26.55;;;15.18;;
73980;SDS011;62348;51.412;5.436;2023-01-24T02:27:58;23.20;;;15.20;;
73980;SDS011;62348;51.412;5.436;2023-01-24T02:30:24;27.27;;;15.45;;
73980;SDS011;62348;51.412;5.436;2023-01-24T02:32:50;27.58;;;16.02;;
73980;SDS011;62348;51.412;5.436;2023-01-24T02:35:29;23.05;;;14.02;;
73980;SDS011;62348;51.412;5.436;2023-01-24T02:37:58;24.80;;;16.60;;
73980;SDS011;62348;51.412;5.436;2023-01-24T02:40:27;23.63;;;14.10;;
73980;SDS011;62348;51.412;5.436;2023-01-24T02:42:54;24.67;;;15.45;;
73980;SDS011;62348;51.412;5.436;2023-01-24T02:45:25;27.45;;;16.70;;
73980;SDS011;62348;51.412;5.436;2023-01-24T02:47:53;24.00;;;15.93;;
73980;SDS011;62348;51.412;5.436;2023-01-24T02:50:21;27.90;;;16.48;;
73980;SDS011;62348;51.412;5.436;2023-01-24T02:52:48;27.35;;;16.15;;
73980;SDS011;62348;51.412;5.436;2023-01-24T02:55:32;26.05;;;16.27;;
73980;SDS011;62348;51.412;5.436;2023-01-24T02:57:58;24.38;;;15.68;;
73980;SDS011;62348;51.412;5.436;2023-01-24T03:00:31;28.98;;;17.77;;
73980;SDS011;62348;51.412;5.436;2023-01-24T03:03:04;28.38;;;16.55;;
73980;SDS011;62348;51.412;5.436;2023-01-24T03:05:31;25.70;;;15.95;;
73980;SDS011;62348;51.412;5.436;2023-01-24T03:08:17;27.13;;;16.27;;
73980;SDS011;62348;51.412;5.436;2023-01-24T03:10:42;24.40;;;15.30;;
73980;SDS011;62348;51.412;5.436;2023-01-24T03:13:07;24.10;;;14.68;;
73980;SDS011;62348;51.412;5.436;2023-01-24T03:15:51;26.10;;;16.13;;
73980;SDS011;62348;51.412;5.436;2023-01-24T03:18:35;25.95;;;16.00;;
73980;SDS011;62348;51.412;5.436;2023-01-24T03:21:19;28.05;;;16.50;;
73980;SDS011;62348;51.412;5.436;2023-01-24T03:24:03;26.23;;;16.17;;
73980;SDS011;62348;51.412;5.436;2023-01-24T03:26:47;25.38;;;16.45;;
73980;SDS011;62348;51.412;5.436;2023-01-24T03:29:31;26.42;;;15.52;;
73980;SDS011;62348;51.412;5.436;2023-01-24T03:32:15;27.55;;;16.30;;
73980;SDS011;62348;51.412;5.436;2023-01-24T03:34:59;27.63;;;16.65;;
73980;SDS011;62348;51.412;5.436;2023-01-24T03:37:25;26.90;;;16.50;;
73980;SDS011;62348;51.412;5.436;2023-01-24T03:40:12;23.10;;;15.57;;
73980;SDS011;62348;51.412;5.436;2023-01-24T03:42:40;23.27;;;15.23;;
73980;SDS011;62348;51.412;5.436;2023-01-24T03:45:17;25.73;;;16.13;;
73980;SDS011;62348;51.412;5.436;2023-01-24T03:47:49;25.75;;;16.15;;
73980;SDS011;62348;51.412;5.436;2023-01-24T03:50:36;22.85;;;15.00;;
73980;SDS011;62348;51.412;5.436;2023-01-24T03:53:22;24.70;;;16.10;;
73980;SDS011;62348;51.412;5.436;2023-01-24T03:55:56;27.73;;;17.13;;
73980;SDS011;62348;51.412;5.436;2023-01-24T03:58:23;26.55;;;16.25;;
73980;SDS011;62348;51.412;5.436;2023-01-24T04:00:49;24.13;;;15.02;;
73980;SDS011;62348;51.412;5.436;2023-01-24T04:03:16;26.65;;;16.73;;
73980;SDS011;62348;51.412;5.436;2023-01-24T04:05:42;27.30;;;17.40;;
73980;SDS011;62348;51.412;5.436;2023-01-24T04:08:07;29.17;;;16.65;;
73980;SDS011;62348;51.412;5.436;2023-01-24T04:10:33;28.38;;;16.88;;
73980;SDS011;62348;51.412;5.436;2023-01-24T04:12:58;29.95;;;17.70;;
73980;SDS011;62348;51.412;5.436;2023-01-24T04:15:28;26.40;;;17.13;;
73980;SDS011;62348;51.412;5.436;2023-01-24T04:17:55;27.27;;;18.90;;
73980;SDS011;62348;51.412;5.436;2023-01-24T04:20:22;26.30;;;16.92;;
73980;SDS011;62348;51.412;5.436;2023-01-24T04:22:49;29.35;;;18.63;;
73980;SDS011;62348;51.412;5.436;2023-01-24T04:25:14;28.05;;;18.90;;
73980;SDS011;62348;51.412;5.436;2023-01-24T04:27:39;27.98;;;17.40;;
73980;SDS011;62348;51.412;5.436;2023-01-24T04:30:06;27.45;;;18.10;;
73980;SDS011;62348;51.412;5.436;2023-01-24T04:32:34;28.20;;;17.67;;
73980;SDS011;62348;51.412;5.436;2023-01-24T04:35:00;28.73;;;17.55;;
73980;SDS011;62348;51.412;5.436;2023-01-24T04:37:25;27.50;;;18.27;;
73980;SDS011;62348;51.412;5.436;2023-01-24T04:39:51;30.98;;;18.67;;
73980;SDS011;62348;51.412;5.436;2023-01-24T04:42:17;28.40;;;17.52;;
73980;SDS011;62348;51.412;5.436;2023-01-24T04:44:42;25.85;;;16.70;;
73980;SDS011;62348;51.412;5.436;2023-01-24T04:47:08;27.20;;;17.27;;
73980;SDS011;62348;51.412;5.436;2023-01-24T04:49:33;29.45;;;18.60;;
73980;SDS011;62348;51.412;5.436;2023-01-24T04:51:58;28.33;;;18.00;;
73980;SDS011;62348;51.412;5.436;2023-01-24T04:54:24;30.52;;;18.67;;
73980;SDS011;62348;51.412;5.436;2023-01-24T04:56:49;28.60;;;19.25;;
73980;SDS011;62348;51.412;5.436;2023-01-24T04:59:15;28.95;;;18.27;;
73980;SDS011;62348;51.412;5.436;2023-01-24T05:01:40;29.02;;;18.17;;
73980;SDS011;62348;51.412;5.436;2023-01-24T05:04:06;28.02;;;18.55;;
73980;SDS011;62348;51.412;5.436;2023-01-24T05:06:32;28.20;;;18.70;;
73980;SDS011;62348;51.412;5.436;2023-01-24T05:08:58;27.77;;;17.58;;
73980;SDS011;62348;51.412;5.436;2023-01-24T05:11:24;27.33;;;18.73;;
73980;SDS011;62348;51.412;5.436;2023-01-24T05:13:50;28.63;;;17.63;;
73980;SDS011;62348;51.412;5.436;2023-01-24T05:16:16;29.20;;;19.13;;
73980;SDS011;62348;51.412;5.436;2023-01-24T05:18:41;28.90;;;18.50;;
73980;SDS011;62348;51.412;5.436;2023-01-24T05:21:11;29.17;;;18.58;;
73980;SDS011;62348;51.412;5.436;2023-01-24T05:23:38;27.27;;;17.65;;
73980;SDS011;62348;51.412;5.436;2023-01-24T05:26:03;28.08;;;17.45;;
73980;SDS011;62348;51.412;5.436;2023-01-24T05:28:29;27.30;;;18.45;;
73980;SDS011;62348;51.412;5.436;2023-01-24T05:30:59;30.83;;;20.23;;
73980;SDS011;62348;51.412;5.436;2023-01-24T05:33:26;28.88;;;18.58;;
73980;SDS011;62348;51.412;5.436;2023-01-24T05:35:58;26.30;;;17.20;;
73980;SDS011;62348;51.412;5.436;2023-01-24T05:38:28;30.00;;;17.83;;
73980;SDS011;62348;51.412;5.436;2023-01-24T05:40:57;26.88;;;18.02;;
73980;SDS011;62348;51.412;5.436;2023-01-24T05:43:24;24.42;;;17.73;;
73980;SDS011;62348;51.412;5.436;2023-01-24T05:45:49;27.95;;;17.50;;
73980;SDS011;62348;51.412;5.436;2023-01-24T05:48:15;29.52;;;18.75;;
73980;SDS011;62348;51.412;5.436;2023-01-24T05:50:40;25.42;;;17.13;;
73980;SDS011;62348;51.412;5.436;2023-01-24T05:53:05;27.60;;;17.90;;
73980;SDS011;62348;51.412;5.436;2023-01-24T05:55:31;24.38;;;17.42;;
73980;SDS011;62348;51.412;5.436;2023-01-24T05:57:57;26.10;;;17.73;;
73980;SDS011;62348;51.412;5.436;2023-01-24T06:00:24;24.05;;;16.10;;
73980;SDS011;62348;51.412;5.436;2023-01-24T06:02:50;27.38;;;18.08;;
73980;SDS011;62348;51.412;5.436;2023-01-24T06:05:15;28.08;;;19.30;;
73980;SDS011;62348;51.412;5.436;2023-01-24T06:07:40;29.13;;;18.33;;
73980;SDS011;62348;51.412;5.436;2023-01-24T06:10:06;28.15;;;18.48;;
73980;SDS011;62348;51.412;5.436;2023-01-24T06:12:32;27.17;;;16.98;;
73980;SDS011;62348;51.412;5.436;2023-01-24T06:14:57;27.15;;;18.48;;
73980;SDS011;62348;51.412;5.436;2023-01-24T06:17:22;25.50;;;17.75;;
73980;SDS011;62348;51.412;5.436;2023-01-24T06:19:48;30.40;;;18.98;;
73980;SDS011;62348;51.412;5.436;2023-01-24T06:22:20;26.88;;;17.25;;
73980;SDS011;62348;51.412;5.436;2023-01-24T06:24:53;25.88;;;16.63;;
73980;SDS011;62348;51.412;5.436;2023-01-24T06:27:18;27.00;;;17.38;;
73980;SDS011;62348;51.412;5.436;2023-01-24T06:29:44;26.85;;;17.80;;
73980;SDS011;62348;51.412;5.436;2023-01-24T06:37:40;24.70;;;15.93;;
73980;SDS011;62348;51.412;5.436;2023-01-24T06:40:18;24.92;;;15.80;;
73980;SDS011;62348;51.412;5.436;2023-01-24T06:42:46;27.20;;;17.30;;
73980;SDS011;62348;51.412;5.436;2023-01-24T06:45:11;25.98;;;16.83;;
73980;SDS011;62348;51.412;5.436;2023-01-24T06:47:37;27.08;;;17.20;;
73980;SDS011;62348;51.412;5.436;2023-01-24T06:50:03;23.88;;;15.95;;
73980;SDS011;62348;51.412;5.436;2023-01-24T06:52:31;24.60;;;15.80;;
73980;SDS011;62348;51.412;5.436;2023-01-24T06:54:56;25.40;;;16.30;;
73980;SDS011;62348;51.412;5.436;2023-01-24T06:57:22;24.65;;;15.32;;
73980;SDS011;62348;51.412;5.436;2023-01-24T06:59:47;24.85;;;15.43;;
73980;SDS011;62348;51.412;5.436;2023-01-24T07:02:12;24.35;;;15.77;;
73980;SDS011;62348;51.412;5.436;2023-01-24T07:04:38;24.23;;;16.35;;
73980;SDS011;62348;51.412;5.436;2023-01-24T07:07:03;23.20;;;15.35;;
73980;SDS011;62348;51.412;5.436;2023-01-24T07:09:31;23.88;;;15.70;;
73980;SDS011;62348;51.412;5.436;2023-01-24T07:11:57;23.92;;;14.82;;
73980;SDS011;62348;51.412;5.436;2023-01-24T07:14:23;21.90;;;14.63;;
73980;SDS011;62348;51.412;5.436;2023-01-24T07:16:49;22.67;;;14.48;;
73980;SDS011;62348;51.412;5.436;2023-01-24T07:19:16;23.05;;;14.40;;
73980;SDS011;62348;51.412;5.436;2023-01-24T07:21:43;24.02;;;15.02;;
73980;SDS011;62348;51.412;5.436;2023-01-24T07:24:13;22.42;;;14.27;;
73980;SDS011;62348;51.412;5.436;2023-01-24T07:26:40;21.63;;;13.63;;
73980;SDS011;62348;51.412;5.436;2023-01-24T07:29:06;23.23;;;14.80;;
73980;SDS011;62348;51.412;5.436;2023-01-24T07:31:32;25.98;;;15.75;;
73980;SDS011;62348;51.412;5.436;2023-01-24T07:33:57;22.35;;;14.48;;
73980;SDS011;62348;51.412;5.436;2023-01-24T07:36:23;22.10;;;13.90;;
73980;SDS011;62348;51.412;5.436;2023-01-24T07:38:52;24.08;;;14.88;;
73980;SDS011;62348;51.412;5.436;2023-01-24T07:41:18;23.42;;;14.32;;
73980;SDS011;62348;51.412;5.436;2023-01-24T07:43:43;22.98;;;14.35;;
73980;SDS011;62348;51.412;5.436;2023-01-24T07:46:08;22.33;;;14.30;;
73980;SDS011;62348;51.412;5.436;2023-01-24T07:48:34;23.98;;;14.90;;
73980;SDS011;62348;51.412;5.436;2023-01-24T07:51:00;25.80;;;14.65;;
73980;SDS011;62348;51.412;5.436;2023-01-24T07:53:26;24.90;;;14.65;;
73980;SDS011;62348;51.412;5.436;2023-01-24T07:55:51;23.77;;;13.98;;
73980;SDS011;62348;51.412;5.436;2023-01-24T07:58:17;26.33;;;14.93;;
73980;SDS011;62348;51.412;5.436;2023-01-24T08:00:42;23.60;;;14.35;;
73980;SDS011;62348;51.412;5.436;2023-01-24T08:03:09;22.05;;;14.50;;
73980;SDS011;62348;51.412;5.436;2023-01-24T08:05:38;22.00;;;13.25;;
73980;SDS011;62348;51.412;5.436;2023-01-24T08:08:03;23.58;;;14.50;;
73980;SDS011;62348;51.412;5.436;2023-01-24T08:10:29;21.85;;;13.93;;
73980;SDS011;62348;51.412;5.436;2023-01-24T08:12:55;22.75;;;13.98;;
73980;SDS011;62348;51.412;5.436;2023-01-24T08:15:21;22.58;;;13.57;;
73980;SDS011;62348;51.412;5.436;2023-01-24T08:17:47;23.85;;;14.50;;
73980;SDS011;62348;51.412;5.436;2023-01-24T08:20:12;25.10;;;14.23;;
73980;SDS011;62348;51.412;5.436;2023-01-24T08:22:39;25.42;;;14.73;;
73980;SDS011;62348;51.412;5.436;2023-01-24T08:25:05;21.00;;;13.55;;
73980;SDS011;62348;51.412;5.436;2023-01-24T08:27:31;21.95;;;14.27;;
73980;SDS011;62348;51.412;5.436;2023-01-24T08:29:57;24.35;;;14.70;;
73980;SDS011;62348;51.412;5.436;2023-01-24T08:32:22;22.55;;;14.45;;
73980;SDS011;62348;51.412;5.436;2023-01-24T08:34:48;24.27;;;14.38;;
73980;SDS011;62348;51.412;5.436;2023-01-24T08:37:13;24.40;;;14.63;;
73980;SDS011;62348;51.412;5.436;2023-01-24T08:39:39;24.05;;;14.48;;
73980;SDS011;62348;51.412;5.436;2023-01-24T08:42:04;24.67;;;14.60;;
73980;SDS011;62348;51.412;5.436;2023-01-24T08:44:30;25.42;;;15.52;;
73980;SDS011;62348;51.412;5.436;2023-01-24T08:46:55;24.27;;;15.05;;
73980;SDS011;62348;51.412;5.436;2023-01-24T08:49:20;24.55;;;15.30;;
73980;SDS011;62348;51.412;5.436;2023-01-24T08:51:46;24.63;;;14.77;;
73980;SDS011;62348;51.412;5.436;2023-01-24T08:54:12;25.17;;;14.82;;
73980;SDS011;62348;51.412;5.436;2023-01-24T08:56:38;23.33;;;15.05;;
73980;SDS011;62348;51.412;5.436;2023-01-24T08:59:03;24.80;;;15.07;;
73980;SDS011;62348;51.412;5.436;2023-01-24T09:01:29;21.60;;;14.23;;
73980;SDS011;62348;51.412;5.436;2023-01-24T09:03:57;24.00;;;14.43;;
73980;SDS011;62348;51.412;5.436;2023-01-24T09:06:24;24.33;;;14.02;;
73980;SDS011;62348;51.412;5.436;2023-01-24T09:08:53;22.77;;;14.48;;
73980;SDS011;62348;51.412;5.436;2023-01-24T09:11:20;24.30;;;14.73;;
73980;SDS011;62348;51.412;5.436;2023-01-24T09:13:46;21.65;;;14.35;;
73980;SDS011;62348;51.412;5.436;2023-01-24T09:16:11;22.52;;;15.10;;
73980;SDS011;62348;51.412;5.436;2023-01-24T09:18:37;25.30;;;15.10;;
73980;SDS011;62348;51.412;5.436;2023-01-24T09:21:02;26.95;;;14.73;;
73980;SDS011;62348;51.412;5.436;2023-01-24T09:23:28;22.85;;;14.40;;
73980;SDS011;62348;51.412;5.436;2023-01-24T09:25:54;23.60;;;14.63;;
73980;SDS011;62348;51.412;5.436;2023-01-24T09:28:19;23.67;;;14.40;;
73980;SDS011;62348;51.412;5.436;2023-01-24T09:30:47;24.60;;;14.90;;
73980;SDS011;62348;51.412;5.436;2023-01-24T09:33:13;21.25;;;13.55;;
73980;SDS011;62348;51.412;5.436;2023-01-24T09:35:39;24.15;;;14.25;;
73980;SDS011;62348;51.412;5.436;2023-01-24T09:38:04;25.15;;;14.90;;
73980;SDS011;62348;51.412;5.436;2023-01-24T09:40:43;25.33;;;14.18;;
73980;SDS011;62348;51.412;5.436;2023-01-24T09:46:02;23.65;;;13.35;;
73980;SDS011;62348;51.412;5.436;2023-01-24T09:48:32;21.90;;;13.40;;
73980;SDS011;62348;51.412;5.436;2023-01-24T09:50:59;27.08;;;15.32;;
73980;SDS011;62348;51.412;5.436;2023-01-24T09:53:32;21.73;;;13.43;;
73980;SDS011;62348;51.412;5.436;2023-01-24T09:56:06;20.85;;;12.40;;
73980;SDS011;62348;51.412;5.436;2023-01-24T09:58:36;24.50;;;14.73;;
73980;SDS011;62348;51.412;5.436;2023-01-24T10:01:12;23.50;;;13.35;;
73980;SDS011;62348;51.412;5.436;2023-01-24T10:03:39;22.08;;;13.60;;
73980;SDS011;62348;51.412;5.436;2023-01-24T10:08:39;20.13;;;13.43;;
73980;SDS011;62348;51.412;5.436;2023-01-24T10:11:29;21.42;;;13.38;;
73980;SDS011;62348;51.412;5.436;2023-01-24T10:17:21;19.05;;;12.32;;
73980;SDS011;62348;51.412;5.436;2023-01-24T10:25:22;21.98;;;13.40;;
73980;SDS011;62348;51.412;5.436;2023-01-24T10:27:53;21.73;;;13.02;;
73980;SDS011;62348;51.412;5.436;2023-01-24T10:32:52;20.65;;;13.52;;
73980;SDS011;62348;51.412;5.436;2023-01-24T10:35:42;23.48;;;14.38;;
73980;SDS011;62348;51.412;5.436;2023-01-24T10:40:50;19.08;;;12.52;;
73980;SDS011;62348;51.412;5.436;2023-01-24T10:43:17;21.27;;;13.63;;
73980;SDS011;62348;51.412;5.436;2023-01-24T10:45:49;21.02;;;13.27;;
73980;SDS011;62348;51.412;5.436;2023-01-24T10:51:11;22.13;;;13.40;;
73980;SDS011;62348;51.412;5.436;2023-01-24T10:53:38;21.75;;;13.10;;
73980;SDS011;62348;51.412;5.436;2023-01-24T10:56:04;19.08;;;12.25;;
73980;SDS011;62348;51.412;5.436;2023-01-24T10:58:37;17.25;;;11.85;;
73980;SDS011;62348;51.412;5.436;2023-01-24T11:01:18;18.35;;;13.18;;
73980;SDS011;62348;51.412;5.436;2023-01-24T11:03:46;21.30;;;13.23;;
73980;SDS011;62348;51.412;5.436;2023-01-24T11:09:19;22.67;;;14.73;;
73980;SDS011;62348;51.412;5.436;2023-01-24T11:11:51;19.23;;;12.93;;
73980;SDS011;62348;51.412;5.436;2023-01-24T11:14:22;20.75;;;13.32;;
73980;SDS011;62348;51.412;5.436;2023-01-24T11:16:51;19.48;;;12.68;;
73980;SDS011;62348;51.412;5.436;2023-01-24T11:19:23;22.55;;;13.98;;
73980;SDS011;62348;51.412;5.436;2023-01-24T11:21:55;19.33;;;12.70;;
73980;SDS011;62348;51.412;5.436;2023-01-24T11:24:23;23.10;;;13.57;;
73980;SDS011;62348;51.412;5.436;2023-01-24T11:27:07;19.50;;;12.93;;
73980;SDS011;62348;51.412;5.436;2023-01-24T11:29:44;20.92;;;12.70;;
73980;SDS011;62348;51.412;5.436;2023-01-24T11:35:09;18.80;;;13.02;;
73980;SDS011;62348;51.412;5.436;2023-01-24T11:48:22;20.90;;;13.50;;
73980;SDS011;62348;51.412;5.436;2023-01-24T11:56:40;19.00;;;12.55;;
73980;SDS011;62348;51.412;5.436;2023-01-24T12:05:16;19.15;;;12.25;;
73980;SDS011;62348;51.412;5.436;2023-01-24T12:16:18;21.08;;;13.60;;
73980;SDS011;62348;51.412;5.436;2023-01-24T12:21:54;21.75;;;14.20;;
73980;SDS011;62348;51.412;5.436;2023-01-24T12:24:31;21.23;;;13.85;;
73980;SDS011;62348;51.412;5.436;2023-01-24T12:27:08;22.05;;;13.98;;
73980;SDS011;62348;51.412;5.436;2023-01-24T12:29:49;21.73;;;14.60;;
73980;SDS011;62348;51.412;5.436;2023-01-24T12:32:25;20.23;;;13.60;;
73980;SDS011;62348;51.412;5.436;2023-01-24T12:34:57;20.50;;;13.02;;
73980;SDS011;62348;51.412;5.436;2023-01-24T12:37:55;22.15;;;14.63;;
73980;SDS011;62348;51.412;5.436;2023-01-24T12:49:24;22.83;;;14.77;;
73980;SDS011;62348;51.412;5.436;2023-01-24T12:55:14;24.65;;;15.48;;
73980;SDS011;62348;51.412;5.436;2023-01-24T12:57:48;21.50;;;14.80;;
73980;SDS011;62348;51.412;5.436;2023-01-24T13:00:19;21.27;;;14.65;;
73980;SDS011;62348;51.412;5.436;2023-01-24T13:11:17;22.25;;;14.95;;
73980;SDS011;62348;51.412;5.436;2023-01-24T13:13:57;25.33;;;16.13;;
73980;SDS011;62348;51.412;5.436;2023-01-24T13:16:57;23.63;;;14.75;;
73980;SDS011;62348;51.412;5.436;2023-01-24T13:27:54;21.85;;;14.65;;
73980;SDS011;62348;51.412;5.436;2023-01-24T13:33:03;21.00;;;15.00;;
73980;SDS011;62348;51.412;5.436;2023-01-24T13:35:30;22.85;;;15.57;;
73980;SDS011;62348;51.412;5.436;2023-01-24T13:38:03;20.58;;;14.65;;
73980;SDS011;62348;51.412;5.436;2023-01-24T13:40:57;20.95;;;14.55;;
73980;SDS011;62348;51.412;5.436;2023-01-24T13:52:01;23.70;;;15.60;;
73980;SDS011;62348;51.412;5.436;2023-01-24T14:02:28;22.17;;;15.60;;
73980;SDS011;62348;51.412;5.436;2023-01-24T14:04:56;22.90;;;16.08;;
73980;SDS011;62348;51.412;5.436;2023-01-24T14:09:58;21.67;;;15.43;;
73980;SDS011;62348;51.412;5.436;2023-01-24T14:12:25;22.55;;;16.67;;
73980;SDS011;62348;51.412;5.436;2023-01-24T14:17:46;20.45;;;14.70;;
73980;SDS011;62348;51.412;5.436;2023-01-24T14:20:58;21.30;;;14.75;;
73980;SDS011;62348;51.412;5.436;2023-01-24T14:23:15;25.60;;;17.10;;
73980;SDS011;62348;51.412;5.436;2023-01-24T14:25:48;24.42;;;16.60;;
73980;SDS011;62348;51.412;5.436;2023-01-24T14:28:18;22.80;;;16.70;;
73980;SDS011;62348;51.412;5.436;2023-01-24T14:30:50;19.80;;;15.52;;
73980;SDS011;62348;51.412;5.436;2023-01-24T14:33:27;23.60;;;16.13;;
73980;SDS011;62348;51.412;5.436;2023-01-24T14:35:58;24.65;;;16.50;;
73980;SDS011;62348;51.412;5.436;2023-01-24T14:38:29;22.88;;;15.23;;
73980;SDS011;62348;51.412;5.436;2023-01-24T14:40:55;21.48;;;15.13;;
73980;SDS011;62348;51.412;5.436;2023-01-24T14:43:23;22.48;;;16.13;;
73980;SDS011;62348;51.412;5.436;2023-01-24T14:45:57;22.92;;;16.13;;
73980;SDS011;62348;51.412;5.436;2023-01-24T14:48:23;24.58;;;16.50;;
73980;SDS011;62348;51.412;5.436;2023-01-24T14:51:06;22.30;;;16.50;;
73980;SDS011;62348;51.412;5.436;2023-01-24T14:53:39;23.05;;;16.17;;
73980;SDS011;62348;51.412;5.436;2023-01-24T14:56:11;22.58;;;16.05;;
73980;SDS011;62348;51.412;5.436;2023-01-24T14:58:39;23.00;;;16.88;;
73980;SDS011;62348;51.412;5.436;2023-01-24T15:01:19;23.15;;;17.15;;
73980;SDS011;62348;51.412;5.436;2023-01-24T15:03:50;25.80;;;18.10;;
73980;SDS011;62348;51.412;5.436;2023-01-24T15:06:16;23.67;;;17.42;;
73980;SDS011;62348;51.412;5.436;2023-01-24T15:08:43;24.23;;;16.67;;
73980;SDS011;62348;51.412;5.436;2023-01-24T15:11:19;26.60;;;17.67;;
73980;SDS011;62348;51.412;5.436;2023-01-24T15:13:50;21.40;;;15.70;;
73980;SDS011;62348;51.412;5.436;2023-01-24T15:16:21;23.58;;;16.75;;
73980;SDS011;62348;51.412;5.436;2023-01-24T15:19:00;23.85;;;16.38;;
73980;SDS011;62348;51.412;5.436;2023-01-24T15:21:34;24.63;;;17.05;;
73980;SDS011;62348;51.412;5.436;2023-01-24T15:24:03;23.77;;;17.33;;
73980;SDS011;62348;51.412;5.436;2023-01-24T15:28:58;23.63;;;17.25;;
73980;SDS011;62348;51.412;5.436;2023-01-24T15:31:47;26.02;;;18.92;;
73980;SDS011;62348;51.412;5.436;2023-01-24T15:34:16;24.88;;;16.42;;
73980;SDS011;62348;51.412;5.436;2023-01-24T15:36:44;25.02;;;17.42;;
73980;SDS011;62348;51.412;5.436;2023-01-24T15:39:11;20.48;;;15.40;;
73980;SDS011;62348;51.412;5.436;2023-01-24T15:41:38;24.92;;;16.75;;
73980;SDS011;62348;51.412;5.436;2023-01-24T15:44:22;24.48;;;17.63;;
73980;SDS011;62348;51.412;5.436;2023-01-24T15:46:54;24.95;;;17.70;;
73980;SDS011;62348;51.412;5.436;2023-01-24T15:49:40;25.02;;;17.63;;
73980;SDS011;62348;51.412;5.436;2023-01-24T15:52:23;22.33;;;16.23;;
73980;SDS011;62348;51.412;5.436;2023-01-24T15:54:50;24.42;;;16.40;;
73980;SDS011;62348;51.412;5.436;2023-01-24T15:59:53;22.42;;;16.55;;
73980;SDS011;62348;51.412;5.436;2023-01-24T16:02:20;22.88;;;16.23;;
73980;SDS011;62348;51.412;5.436;2023-01-24T16:04:46;24.10;;;15.63;;
73980;SDS011;62348;51.412;5.436;2023-01-24T16:07:13;22.52;;;14.32;;
73980;SDS011;62348;51.412;5.436;2023-01-24T16:09:39;25.10;;;16.23;;
73980;SDS011;62348;51.412;5.436;2023-01-24T16:12:05;22.15;;;16.42;;
73980;SDS011;62348;51.412;5.436;2023-01-24T16:14:34;22.77;;;16.00;;
73980;SDS011;62348;51.412;5.436;2023-01-24T16:17:01;24.67;;;17.63;;
73980;SDS011;62348;51.412;5.436;2023-01-24T16:19:28;23.30;;;17.00;;
73980;SDS011;62348;51.412;5.436;2023-01-24T16:21:53;21.30;;;15.77;;
73980;SDS011;62348;51.412;5.436;2023-01-24T16:24:19;22.75;;;16.50;;
73980;SDS011;62348;51.412;5.436;2023-01-24T16:26:51;22.95;;;16.45;;
73980;SDS011;62348;51.412;5.436;2023-01-24T16:29:19;23.40;;;16.80;;
73980;SDS011;62348;51.412;5.436;2023-01-24T16:31:47;21.95;;;16.52;;
73980;SDS011;62348;51.412;5.436;2023-01-24T16:34:13;23.58;;;17.63;;
73980;SDS011;62348;51.412;5.436;2023-01-24T16:36:38;24.85;;;18.15;;
73980;SDS011;62348;51.412;5.436;2023-01-24T16:39:05;26.80;;;18.95;;
73980;SDS011;62348;51.412;5.436;2023-01-24T16:41:31;24.67;;;17.55;;
73980;SDS011;62348;51.412;5.436;2023-01-24T16:43:57;25.50;;;17.80;;
73980;SDS011;62348;51.412;5.436;2023-01-24T16:46:23;25.35;;;17.95;;